sensor_id;sensor_type;location;lat;lon;timestamp;temperature;humidity
1830;DHT22;914;48.118;11.600;2023-09-19T00:00:15;19.20;99.90
1830;DHT22;914;48.118;11.600;2023-09-19T00:02:41;19.30;99.90
1830;DHT22;914;48.118;11.600;2023-09-19T00:05:06;19.30;99.90
1830;DHT22;914;48.118;11.600;2023-09-19T00:07:34;19.40;99.90
1830;DHT22;914;48.118;11.600;2023-09-19T00:10:02;19.40;99.90
1830;DHT22;914;48.118;11.600;2023-09-19T00:12:28;19.40;99.90
1830;DHT22;914;48.118;11.600;2023-09-19T00:14:53;19.50;99.90
1830;DHT22;914;48.118;11.600;2023-09-19T00:17:19;19.50;99.90
1830;DHT22;914;48.118;11.600;2023-09-19T00:19:44;19.60;99.90
1830;DHT22;914;48.118;11.600;2023-09-19T00:22:11;19.60;99.90
1830;DHT22;914;48.118;11.600;2023-09-19T00:24:38;19.70;99.90
1830;DHT22;914;48.118;11.600;2023-09-19T00:27:04;19.70;99.90
1830;DHT22;914;48.118;11.600;2023-09-19T00:29:31;19.70;99.90
1830;DHT22;914;48.118;11.600;2023-09-19T00:31:57;19.80;99.90
1830;DHT22;914;48.118;11.600;2023-09-19T00:34:22;19.70;99.90
1830;DHT22;914;48.118;11.600;2023-09-19T00:36:48;19.60;99.90
1830;DHT22;914;48.118;11.600;2023-09-19T00:39:14;19.60;99.90
1830;DHT22;914;48.118;11.600;2023-09-19T00:41:39;19.60;99.90
1830;DHT22;914;48.118;11.600;2023-09-19T00:44:06;19.50;99.90
1830;DHT22;914;48.118;11.600;2023-09-19T00:46:32;19.50;99.90
1830;DHT22;914;48.118;11.600;2023-09-19T00:48:58;19.50;99.90
1830;DHT22;914;48.118;11.600;2023-09-19T00:51:25;19.50;99.90
1830;DHT22;914;48.118;11.600;2023-09-19T00:53:52;19.40;99.90
1830;DHT22;914;48.118;11.600;2023-09-19T00:56:18;19.50;99.90
1830;DHT22;914;48.118;11.600;2023-09-19T00:58:45;19.40;99.90
1830;DHT22;914;48.118;11.600;2023-09-19T01:01:12;19.40;99.90
1830;DHT22;914;48.118;11.600;2023-09-19T01:03:41;19.30;99.90
1830;DHT22;914;48.118;11.600;2023-09-19T01:06:07;19.30;99.90
1830;DHT22;914;48.118;11.600;2023-09-19T01:08:35;19.40;99.90
1830;DHT22;914;48.118;11.600;2023-09-19T01:11:17;19.60;99.90
1830;DHT22;914;48.118;11.600;2023-09-19T01:13:56;19.50;99.90
1830;DHT22;914;48.118;11.600;2023-09-19T01:16:32;19.30;99.90
1830;DHT22;914;48.118;11.600;2023-09-19T01:19:26;19.30;99.90
1830;DHT22;914;48.118;11.600;2023-09-19T01:22:32;19.30;99.90
1830;DHT22;914;48.118;11.600;2023-09-19T01:28:06;19.30;99.90
1830;DHT22;914;48.118;11.600;2023-09-19T01:30:35;19.40;99.90
1830;DHT22;914;48.118;11.600;2023-09-19T01:33:06;19.40;99.90
1830;DHT22;914;48.118;11.600;2023-09-19T01:35:32;19.50;99.90
1830;DHT22;914;48.118;11.600;2023-09-19T01:37:59;19.60;99.90
1830;DHT22;914;48.118;11.600;2023-09-19T01:40:25;19.60;99.90
1830;DHT22;914;48.118;11.600;2023-09-19T01:43:05;19.60;99.90
1830;DHT22;914;48.118;11.600;2023-09-19T01:48:46;19.60;99.90
1830;DHT22;914;48.118;11.600;2023-09-19T01:51:37;19.60;99.90
1830;DHT22;914;48.118;11.600;2023-09-19T01:54:10;19.60;99.90
1830;DHT22;914;48.118;11.600;2023-09-19T01:56:45;19.60;99.90
1830;DHT22;914;48.118;11.600;2023-09-19T01:59:17;19.60;99.90
1830;DHT22;914;48.118;11.600;2023-09-19T02:01:48;19.60;99.90
1830;DHT22;914;48.118;11.600;2023-09-19T02:04:15;19.70;99.90
1830;DHT22;914;48.118;11.600;2023-09-19T02:06:41;19.70;99.90
1830;DHT22;914;48.118;11.600;2023-09-19T02:09:07;19.80;99.90
1830;DHT22;914;48.118;11.600;2023-09-19T02:11:34;19.80;99.90
1830;DHT22;914;48.118;11.600;2023-09-19T02:14:00;19.70;99.90
1830;DHT22;914;48.118;11.600;2023-09-19T02:16:26;19.70;99.90
1830;DHT22;914;48.118;11.600;2023-09-19T02:18:52;19.70;99.90
1830;DHT22;914;48.118;11.600;2023-09-19T02:21:18;19.70;99.90
1830;DHT22;914;48.118;11.600;2023-09-19T02:23:46;19.70;99.90
1830;DHT22;914;48.118;11.600;2023-09-19T02:26:17;19.70;99.90
1830;DHT22;914;48.118;11.600;2023-09-19T02:28:44;19.70;99.90
1830;DHT22;914;48.118;11.600;2023-09-19T02:31:11;19.70;99.90
1830;DHT22;914;48.118;11.600;2023-09-19T02:33:37;19.60;99.90
1830;DHT22;914;48.118;11.600;2023-09-19T02:36:03;19.60;99.90
1830;DHT22;914;48.118;11.600;2023-09-19T02:38:33;19.60;99.90
1830;DHT22;914;48.118;11.600;2023-09-19T02:40:59;19.60;99.90
1830;DHT22;914;48.118;11.600;2023-09-19T02:43:24;19.50;99.90
1830;DHT22;914;48.118;11.600;2023-09-19T02:45:50;19.60;99.90
1830;DHT22;914;48.118;11.600;2023-09-19T02:48:16;19.60;99.90
1830;DHT22;914;48.118;11.600;2023-09-19T02:50:43;19.60;99.90
1830;DHT22;914;48.118;11.600;2023-09-19T02:53:10;19.50;99.90
1830;DHT22;914;48.118;11.600;2023-09-19T02:55:38;19.60;99.90
1830;DHT22;914;48.118;11.600;2023-09-19T02:58:06;19.50;99.90
1830;DHT22;914;48.118;11.600;2023-09-19T03:00:33;19.50;99.90
1830;DHT22;914;48.118;11.600;2023-09-19T03:03:01;19.40;99.90
1830;DHT22;914;48.118;11.600;2023-09-19T03:05:27;19.30;99.90
1830;DHT22;914;48.118;11.600;2023-09-19T03:07:56;19.30;99.90
1830;DHT22;914;48.118;11.600;2023-09-19T03:10:23;19.30;99.90
1830;DHT22;914;48.118;11.600;2023-09-19T03:12:50;19.50;99.90
1830;DHT22;914;48.118;11.600;2023-09-19T03:15:16;19.40;99.90
1830;DHT22;914;48.118;11.600;2023-09-19T03:17:46;19.30;99.90
1830;DHT22;914;48.118;11.600;2023-09-19T03:20:13;19.20;99.90
1830;DHT22;914;48.118;11.600;2023-09-19T03:22:40;19.10;99.90
1830;DHT22;914;48.118;11.600;2023-09-19T03:25:06;19.10;99.90
1830;DHT22;914;48.118;11.600;2023-09-19T03:27:41;19.10;99.90
1830;DHT22;914;48.118;11.600;2023-09-19T03:30:07;19.00;99.90
1830;DHT22;914;48.118;11.600;2023-09-19T03:32:46;18.90;99.90
1830;DHT22;914;48.118;11.600;2023-09-19T03:35:13;18.80;99.90
1830;DHT22;914;48.118;11.600;2023-09-19T03:37:40;18.90;99.90
1830;DHT22;914;48.118;11.600;2023-09-19T03:40:08;19.00;99.90
1830;DHT22;914;48.118;11.600;2023-09-19T03:42:41;19.10;99.90
1830;DHT22;914;48.118;11.600;2023-09-19T03:45:10;19.20;99.90
1830;DHT22;914;48.118;11.600;2023-09-19T03:47:41;19.30;99.90
1830;DHT22;914;48.118;11.600;2023-09-19T03:50:07;19.20;99.90
1830;DHT22;914;48.118;11.600;2023-09-19T03:52:36;19.30;99.90
1830;DHT22;914;48.118;11.600;2023-09-19T03:55:02;19.30;99.90
1830;DHT22;914;48.118;11.600;2023-09-19T03:57:31;19.30;99.90
1830;DHT22;914;48.118;11.600;2023-09-19T03:59:56;19.30;99.90
1830;DHT22;914;48.118;11.600;2023-09-19T04:02:22;19.30;99.90
1830;DHT22;914;48.118;11.600;2023-09-19T04:04:49;19.30;99.90
1830;DHT22;914;48.118;11.600;2023-09-19T04:07:15;19.40;99.90
1830;DHT22;914;48.118;11.600;2023-09-19T04:09:42;19.40;99.90
1830;DHT22;914;48.118;11.600;2023-09-19T04:12:08;19.40;99.90
1830;DHT22;914;48.118;11.600;2023-09-19T04:14:37;19.50;99.90
1830;DHT22;914;48.118;11.600;2023-09-19T04:17:04;19.30;99.90
1830;DHT22;914;48.118;11.600;2023-09-19T04:19:31;19.30;99.90
1830;DHT22;914;48.118;11.600;2023-09-19T04:21:56;19.30;99.90
1830;DHT22;914;48.118;11.600;2023-09-19T04:24:22;19.30;99.90
1830;DHT22;914;48.118;11.600;2023-09-19T04:26:48;19.20;99.90
1830;DHT22;914;48.118;11.600;2023-09-19T04:29:13;19.10;99.90
1830;DHT22;914;48.118;11.600;2023-09-19T04:31:40;19.20;99.90
1830;DHT22;914;48.118;11.600;2023-09-19T04:34:08;19.20;99.90
1830;DHT22;914;48.118;11.600;2023-09-19T04:36:36;19.00;99.90
1830;DHT22;914;48.118;11.600;2023-09-19T04:39:03;18.90;99.90
1830;DHT22;914;48.118;11.600;2023-09-19T04:41:30;18.90;99.90
1830;DHT22;914;48.118;11.600;2023-09-19T04:43:56;18.90;99.90
1830;DHT22;914;48.118;11.600;2023-09-19T04:46:21;19.00;99.90
1830;DHT22;914;48.118;11.600;2023-09-19T04:48:47;19.30;99.90
1830;DHT22;914;48.118;11.600;2023-09-19T04:51:13;19.20;99.90
1830;DHT22;914;48.118;11.600;2023-09-19T04:53:40;19.20;99.90
1830;DHT22;914;48.118;11.600;2023-09-19T04:56:06;19.10;99.90
1830;DHT22;914;48.118;11.600;2023-09-19T04:58:33;19.30;99.90
1830;DHT22;914;48.118;11.600;2023-09-19T05:00:59;19.30;99.90
1830;DHT22;914;48.118;11.600;2023-09-19T05:03:25;19.30;99.90
1830;DHT22;914;48.118;11.600;2023-09-19T05:05:50;19.30;99.90
1830;DHT22;914;48.118;11.600;2023-09-19T05:08:16;19.40;99.90
1830;DHT22;914;48.118;11.600;2023-09-19T05:10:41;19.30;99.90
1830;DHT22;914;48.118;11.600;2023-09-19T05:13:07;19.20;99.90
1830;DHT22;914;48.118;11.600;2023-09-19T05:15:33;19.40;99.90
1830;DHT22;914;48.118;11.600;2023-09-19T05:17:59;19.40;99.90
1830;DHT22;914;48.118;11.600;2023-09-19T05:20:25;19.30;99.90
1830;DHT22;914;48.118;11.600;2023-09-19T05:23:03;19.30;99.90
1830;DHT22;914;48.118;11.600;2023-09-19T05:25:36;19.50;99.90
1830;DHT22;914;48.118;11.600;2023-09-19T05:28:06;19.40;99.90
1830;DHT22;914;48.118;11.600;2023-09-19T05:30:33;19.30;99.90
1830;DHT22;914;48.118;11.600;2023-09-19T05:32:59;19.40;99.90
1830;DHT22;914;48.118;11.600;2023-09-19T05:35:25;19.50;99.90
1830;DHT22;914;48.118;11.600;2023-09-19T05:37:52;19.40;99.90
1830;DHT22;914;48.118;11.600;2023-09-19T05:40:18;19.20;99.90
1830;DHT22;914;48.118;11.600;2023-09-19T05:42:45;19.20;99.90
1830;DHT22;914;48.118;11.600;2023-09-19T05:45:11;19.10;99.90
1830;DHT22;914;48.118;11.600;2023-09-19T05:47:38;19.20;99.90
1830;DHT22;914;48.118;11.600;2023-09-19T05:50:06;19.20;99.90
1830;DHT22;914;48.118;11.600;2023-09-19T05:52:38;19.30;99.90
1830;DHT22;914;48.118;11.600;2023-09-19T05:55:07;19.20;99.90
1830;DHT22;914;48.118;11.600;2023-09-19T05:57:34;19.10;99.90
1830;DHT22;914;48.118;11.600;2023-09-19T05:59:59;19.10;99.90
1830;DHT22;914;48.118;11.600;2023-09-19T06:02:26;19.20;99.90
1830;DHT22;914;48.118;11.600;2023-09-19T06:04:55;19.10;99.90
1830;DHT22;914;48.118;11.600;2023-09-19T06:07:22;19.20;99.90
1830;DHT22;914;48.118;11.600;2023-09-19T06:09:48;19.50;99.90
1830;DHT22;914;48.118;11.600;2023-09-19T06:12:14;19.80;99.90
1830;DHT22;914;48.118;11.600;2023-09-19T06:14:41;19.90;99.90
1830;DHT22;914;48.118;11.600;2023-09-19T06:17:06;20.00;99.90
1830;DHT22;914;48.118;11.600;2023-09-19T06:19:32;20.00;99.90
1830;DHT22;914;48.118;11.600;2023-09-19T06:21:58;20.10;99.90
1830;DHT22;914;48.118;11.600;2023-09-19T06:24:25;19.90;99.90
1830;DHT22;914;48.118;11.600;2023-09-19T06:26:51;19.90;99.90
1830;DHT22;914;48.118;11.600;2023-09-19T06:29:18;19.90;99.90
1830;DHT22;914;48.118;11.600;2023-09-19T06:31:43;19.90;99.90
1830;DHT22;914;48.118;11.600;2023-09-19T06:34:11;20.00;99.90
1830;DHT22;914;48.118;11.600;2023-09-19T06:36:37;20.10;99.90
1830;DHT22;914;48.118;11.600;2023-09-19T06:39:02;20.30;99.90
1830;DHT22;914;48.118;11.600;2023-09-19T06:41:29;20.60;99.90
1830;DHT22;914;48.118;11.600;2023-09-19T06:46:29;20.30;99.90
1830;DHT22;914;48.118;11.600;2023-09-19T06:48:58;20.40;99.90
1830;DHT22;914;48.118;11.600;2023-09-19T06:51:23;20.30;99.90
1830;DHT22;914;48.118;11.600;2023-09-19T06:53:49;20.20;99.90
1830;DHT22;914;48.118;11.600;2023-09-19T06:56:14;20.00;99.90
1830;DHT22;914;48.118;11.600;2023-09-19T06:58:40;19.70;99.90
1830;DHT22;914;48.118;11.600;2023-09-19T07:01:08;19.90;99.90
1830;DHT22;914;48.118;11.600;2023-09-19T07:03:34;20.00;99.90
1830;DHT22;914;48.118;11.600;2023-09-19T07:06:00;20.10;99.90
1830;DHT22;914;48.118;11.600;2023-09-19T07:08:25;20.20;99.90
1830;DHT22;914;48.118;11.600;2023-09-19T07:10:51;20.10;99.90
1830;DHT22;914;48.118;11.600;2023-09-19T07:13:18;20.00;99.90
1830;DHT22;914;48.118;11.600;2023-09-19T07:15:44;20.00;99.90
1830;DHT22;914;48.118;11.600;2023-09-19T07:18:13;20.00;99.90
1830;DHT22;914;48.118;11.600;2023-09-19T07:20:41;19.90;99.90
1830;DHT22;914;48.118;11.600;2023-09-19T07:23:21;20.20;99.90
1830;DHT22;914;48.118;11.600;2023-09-19T07:25:48;20.10;99.90
1830;DHT22;914;48.118;11.600;2023-09-19T07:28:14;20.20;99.90
1830;DHT22;914;48.118;11.600;2023-09-19T07:30:40;20.10;99.90
1830;DHT22;914;48.118;11.600;2023-09-19T07:33:07;20.00;99.90
1830;DHT22;914;48.118;11.600;2023-09-19T07:35:33;20.10;99.90
1830;DHT22;914;48.118;11.600;2023-09-19T07:37:59;19.90;99.90
1830;DHT22;914;48.118;11.600;2023-09-19T07:40:27;20.30;99.90
1830;DHT22;914;48.118;11.600;2023-09-19T07:42:55;20.60;99.90
1830;DHT22;914;48.118;11.600;2023-09-19T07:45:21;20.70;99.90
1830;DHT22;914;48.118;11.600;2023-09-19T07:47:47;20.80;99.90
1830;DHT22;914;48.118;11.600;2023-09-19T07:50:14;21.00;99.90
1830;DHT22;914;48.118;11.600;2023-09-19T07:52:41;20.80;99.90
1830;DHT22;914;48.118;11.600;2023-09-19T07:55:08;20.80;99.90
1830;DHT22;914;48.118;11.600;2023-09-19T07:57:37;20.70;99.90
1830;DHT22;914;48.118;11.600;2023-09-19T08:00:03;20.90;99.90
1830;DHT22;914;48.118;11.600;2023-09-19T08:02:36;20.90;99.90
1830;DHT22;914;48.118;11.600;2023-09-19T08:05:06;20.80;99.90
1830;DHT22;914;48.118;11.600;2023-09-19T08:07:39;20.80;99.90
1830;DHT22;914;48.118;11.600;2023-09-19T08:10:06;21.00;99.90
1830;DHT22;914;48.118;11.600;2023-09-19T08:12:39;21.00;99.90
1830;DHT22;914;48.118;11.600;2023-09-19T08:15:15;21.00;99.90
1830;DHT22;914;48.118;11.600;2023-09-19T08:17:41;21.10;99.90
1830;DHT22;914;48.118;11.600;2023-09-19T08:20:08;21.10;99.90
1830;DHT22;914;48.118;11.600;2023-09-19T08:22:51;21.10;99.90
1830;DHT22;914;48.118;11.600;2023-09-19T08:25:21;21.40;99.50
1830;DHT22;914;48.118;11.600;2023-09-19T08:27:48;21.50;99.90
1830;DHT22;914;48.118;11.600;2023-09-19T08:30:16;21.80;99.90
1830;DHT22;914;48.118;11.600;2023-09-19T08:32:41;22.00;99.70
1830;DHT22;914;48.118;11.600;2023-09-19T08:35:11;22.10;98.70
1830;DHT22;914;48.118;11.600;2023-09-19T08:37:37;21.90;99.10
1830;DHT22;914;48.118;11.600;2023-09-19T08:40:03;21.60;99.50
1830;DHT22;914;48.118;11.600;2023-09-19T08:42:29;21.70;99.10
1830;DHT22;914;48.118;11.600;2023-09-19T08:44:55;21.70;99.20
1830;DHT22;914;48.118;11.600;2023-09-19T08:47:34;21.80;98.50
1830;DHT22;914;48.118;11.600;2023-09-19T08:50:24;21.90;98.50
1830;DHT22;914;48.118;11.600;2023-09-19T08:52:51;22.20;98.50
1830;DHT22;914;48.118;11.600;2023-09-19T08:55:20;22.50;97.50
1830;DHT22;914;48.118;11.600;2023-09-19T08:57:53;21.90;97.70
1830;DHT22;914;48.118;11.600;2023-09-19T09:00:25;22.00;98.40
1830;DHT22;914;48.118;11.600;2023-09-19T09:02:53;22.40;97.80
1830;DHT22;914;48.118;11.600;2023-09-19T09:05:20;22.30;97.50
1830;DHT22;914;48.118;11.600;2023-09-19T09:07:49;22.20;97.60
1830;DHT22;914;48.118;11.600;2023-09-19T09:10:20;22.60;97.50
1830;DHT22;914;48.118;11.600;2023-09-19T09:12:52;22.30;97.40
1830;DHT22;914;48.118;11.600;2023-09-19T09:15:21;22.40;97.30
1830;DHT22;914;48.118;11.600;2023-09-19T09:17:49;22.20;97.60
1830;DHT22;914;48.118;11.600;2023-09-19T09:20:16;22.00;97.20
1830;DHT22;914;48.118;11.600;2023-09-19T09:22:53;21.70;97.30
1830;DHT22;914;48.118;11.600;2023-09-19T09:25:20;21.70;97.30
1830;DHT22;914;48.118;11.600;2023-09-19T09:28:08;21.50;97.30
1830;DHT22;914;48.118;11.600;2023-09-19T09:30:35;21.70;97.10
1830;DHT22;914;48.118;11.600;2023-09-19T09:33:12;21.60;96.10
1830;DHT22;914;48.118;11.600;2023-09-19T09:35:49;21.70;96.50
1830;DHT22;914;48.118;11.600;2023-09-19T09:38:21;22.10;96.10
1830;DHT22;914;48.118;11.600;2023-09-19T09:40:52;22.30;95.70
1830;DHT22;914;48.118;11.600;2023-09-19T09:43:34;22.50;95.50
1830;DHT22;914;48.118;11.600;2023-09-19T09:49:02;22.90;95.10
1830;DHT22;914;48.118;11.600;2023-09-19T09:51:42;22.90;94.50
1830;DHT22;914;48.118;11.600;2023-09-19T09:54:16;22.90;94.60
1830;DHT22;914;48.118;11.600;2023-09-19T09:57:12;23.10;94.30
1830;DHT22;914;48.118;11.600;2023-09-19T09:59:54;22.80;93.60
1830;DHT22;914;48.118;11.600;2023-09-19T10:02:34;22.50;94.10
1830;DHT22;914;48.118;11.600;2023-09-19T10:05:16;22.20;94.10
1830;DHT22;914;48.118;11.600;2023-09-19T10:07:54;22.70;94.80
1830;DHT22;914;48.118;11.600;2023-09-19T10:10:33;23.30;95.00
1830;DHT22;914;48.118;11.600;2023-09-19T10:13:06;23.60;93.80
1830;DHT22;914;48.118;11.600;2023-09-19T10:15:34;23.80;93.80
1830;DHT22;914;48.118;11.600;2023-09-19T10:18:04;24.10;93.90
1830;DHT22;914;48.118;11.600;2023-09-19T10:20:30;23.80;92.70
1830;DHT22;914;48.118;11.600;2023-09-19T10:23:03;23.80;92.40
1830;DHT22;914;48.118;11.600;2023-09-19T10:25:29;24.00;92.50
1830;DHT22;914;48.118;11.600;2023-09-19T10:28:00;24.30;92.90
1830;DHT22;914;48.118;11.600;2023-09-19T10:30:29;24.60;92.20
1830;DHT22;914;48.118;11.600;2023-09-19T10:33:03;24.90;93.30
1830;DHT22;914;48.118;11.600;2023-09-19T10:35:29;24.80;92.50
1830;DHT22;914;48.118;11.600;2023-09-19T10:37:59;24.80;93.60
1830;DHT22;914;48.118;11.600;2023-09-19T10:40:27;25.00;91.50
1830;DHT22;914;48.118;11.600;2023-09-19T10:43:02;25.10;92.20
1830;DHT22;914;48.118;11.600;2023-09-19T10:45:34;24.80;91.70
1830;DHT22;914;48.118;11.600;2023-09-19T10:48:01;25.00;91.60
1830;DHT22;914;48.118;11.600;2023-09-19T10:51:19;25.00;92.70
1830;DHT22;914;48.118;11.600;2023-09-19T10:53:20;24.90;91.40
1830;DHT22;914;48.118;11.600;2023-09-19T10:55:58;25.10;91.60
1830;DHT22;914;48.118;11.600;2023-09-19T10:58:35;25.70;91.60
1830;DHT22;914;48.118;11.600;2023-09-19T11:01:04;25.50;91.20
1830;DHT22;914;48.118;11.600;2023-09-19T11:03:38;25.00;91.20
1830;DHT22;914;48.118;11.600;2023-09-19T11:06:17;25.30;92.20
1830;DHT22;914;48.118;11.600;2023-09-19T11:08:57;25.10;91.40
1830;DHT22;914;48.118;11.600;2023-09-19T11:11:38;25.30;91.50
1830;DHT22;914;48.118;11.600;2023-09-19T11:30:45;24.10;91.60
1830;DHT22;914;48.118;11.600;2023-09-19T11:33:18;24.20;91.20
1830;DHT22;914;48.118;11.600;2023-09-19T11:36:10;24.60;90.50
1830;DHT22;914;48.118;11.600;2023-09-19T11:43:48;27.20;80.70
1830;DHT22;914;48.118;11.600;2023-09-19T11:46:16;26.60;78.40
1830;DHT22;914;48.118;11.600;2023-09-19T11:48:48;26.50;80.00
1830;DHT22;914;48.118;11.600;2023-09-19T11:51:23;26.70;82.90
1830;DHT22;914;48.118;11.600;2023-09-19T11:53:58;26.00;79.30
1830;DHT22;914;48.118;11.600;2023-09-19T11:56:28;25.30;81.10
1830;DHT22;914;48.118;11.600;2023-09-19T11:58:55;24.60;82.40
1830;DHT22;914;48.118;11.600;2023-09-19T12:01:30;24.50;82.20
1830;DHT22;914;48.118;11.600;2023-09-19T12:03:58;24.90;84.10
1830;DHT22;914;48.118;11.600;2023-09-19T12:06:25;25.70;82.40
1830;DHT22;914;48.118;11.600;2023-09-19T12:08:51;27.40;79.40
1830;DHT22;914;48.118;11.600;2023-09-19T12:11:21;28.50;79.50
1830;DHT22;914;48.118;11.600;2023-09-19T12:13:48;29.40;74.50
1830;DHT22;914;48.118;11.600;2023-09-19T12:16:15;29.40;73.90
1830;DHT22;914;48.118;11.600;2023-09-19T12:18:42;29.70;73.50
1830;DHT22;914;48.118;11.600;2023-09-19T12:21:25;29.20;74.20
1830;DHT22;914;48.118;11.600;2023-09-19T12:23:59;29.00;77.50
1830;DHT22;914;48.118;11.600;2023-09-19T12:26:27;29.20;74.60
1830;DHT22;914;48.118;11.600;2023-09-19T12:28:54;28.70;73.90
1830;DHT22;914;48.118;11.600;2023-09-19T12:31:20;29.20;74.60
1830;DHT22;914;48.118;11.600;2023-09-19T12:33:46;29.20;73.00
1830;DHT22;914;48.118;11.600;2023-09-19T12:36:24;29.30;74.10
1830;DHT22;914;48.118;11.600;2023-09-19T12:38:56;28.60;73.80
1830;DHT22;914;48.118;11.600;2023-09-19T12:41:25;28.10;74.20
1830;DHT22;914;48.118;11.600;2023-09-19T12:43:52;28.00;74.70
1830;DHT22;914;48.118;11.600;2023-09-19T12:46:22;28.50;73.60
1830;DHT22;914;48.118;11.600;2023-09-19T12:49:17;28.70;73.20
1830;DHT22;914;48.118;11.600;2023-09-19T12:51:43;28.40;74.40
1830;DHT22;914;48.118;11.600;2023-09-19T12:54:09;28.30;76.40
1830;DHT22;914;48.118;11.600;2023-09-19T12:56:43;28.90;75.90
1830;DHT22;914;48.118;11.600;2023-09-19T12:59:14;29.40;74.30
1830;DHT22;914;48.118;11.600;2023-09-19T13:01:41;29.10;74.20
1830;DHT22;914;48.118;11.600;2023-09-19T13:04:20;29.10;75.60
1830;DHT22;914;48.118;11.600;2023-09-19T13:06:46;30.10;74.10
1830;DHT22;914;48.118;11.600;2023-09-19T13:09:14;29.70;72.60
1830;DHT22;914;48.118;11.600;2023-09-19T13:11:41;29.90;73.60
1830;DHT22;914;48.118;11.600;2023-09-19T13:14:26;29.40;72.20
1830;DHT22;914;48.118;11.600;2023-09-19T13:17:06;29.30;72.70
1830;DHT22;914;48.118;11.600;2023-09-19T13:19:49;29.20;74.20
1830;DHT22;914;48.118;11.600;2023-09-19T13:25:10;28.60;73.60
1830;DHT22;914;48.118;11.600;2023-09-19T13:27:47;28.80;74.80
1830;DHT22;914;48.118;11.600;2023-09-19T13:30:25;28.90;73.80
1830;DHT22;914;48.118;11.600;2023-09-19T13:32:52;29.70;74.20
1830;DHT22;914;48.118;11.600;2023-09-19T13:35:19;29.80;71.90
1830;DHT22;914;48.118;11.600;2023-09-19T13:37:46;29.70;75.00
1830;DHT22;914;48.118;11.600;2023-09-19T13:40:15;29.60;75.40
1830;DHT22;914;48.118;11.600;2023-09-19T13:42:41;29.80;74.60
1830;DHT22;914;48.118;11.600;2023-09-19T13:45:08;30.10;72.50
1830;DHT22;914;48.118;11.600;2023-09-19T13:47:37;30.10;71.90
1830;DHT22;914;48.118;11.600;2023-09-19T13:50:04;29.60;73.60
1830;DHT22;914;48.118;11.600;2023-09-19T13:52:33;28.40;75.30
1830;DHT22;914;48.118;11.600;2023-09-19T13:54:59;28.00;75.90
1830;DHT22;914;48.118;11.600;2023-09-19T13:57:28;27.70;72.40
1830;DHT22;914;48.118;11.600;2023-09-19T13:59:54;27.40;74.70
1830;DHT22;914;48.118;11.600;2023-09-19T14:02:23;26.70;75.30
1830;DHT22;914;48.118;11.600;2023-09-19T14:04:50;26.60;72.80
1830;DHT22;914;48.118;11.600;2023-09-19T14:07:16;26.10;75.80
1830;DHT22;914;48.118;11.600;2023-09-19T14:09:49;26.00;75.90
1830;DHT22;914;48.118;11.600;2023-09-19T14:12:15;26.00;76.30
1830;DHT22;914;48.118;11.600;2023-09-19T14:14:40;26.00;76.10
1830;DHT22;914;48.118;11.600;2023-09-19T14:17:06;25.40;77.40
1830;DHT22;914;48.118;11.600;2023-09-19T14:19:33;25.30;78.50
1830;DHT22;914;48.118;11.600;2023-09-19T14:21:58;25.50;79.50
1830;DHT22;914;48.118;11.600;2023-09-19T14:24:25;25.20;78.70
1830;DHT22;914;48.118;11.600;2023-09-19T14:26:51;25.50;77.80
1830;DHT22;914;48.118;11.600;2023-09-19T14:29:17;25.50;78.70
1830;DHT22;914;48.118;11.600;2023-09-19T14:31:43;25.60;78.60
1830;DHT22;914;48.118;11.600;2023-09-19T14:34:09;25.40;78.70
1830;DHT22;914;48.118;11.600;2023-09-19T14:36:38;25.30;78.80
1830;DHT22;914;48.118;11.600;2023-09-19T14:39:04;25.10;80.90
1830;DHT22;914;48.118;11.600;2023-09-19T14:41:30;24.90;82.00
1830;DHT22;914;48.118;11.600;2023-09-19T14:43:56;24.80;82.10
1830;DHT22;914;48.118;11.600;2023-09-19T14:46:22;24.90;82.30
1830;DHT22;914;48.118;11.600;2023-09-19T14:48:52;24.80;81.80
1830;DHT22;914;48.118;11.600;2023-09-19T14:51:19;24.90;79.90
1830;DHT22;914;48.118;11.600;2023-09-19T14:53:45;24.80;81.20
1830;DHT22;914;48.118;11.600;2023-09-19T14:56:12;24.90;81.20
1830;DHT22;914;48.118;11.600;2023-09-19T14:58:38;24.90;81.70
1830;DHT22;914;48.118;11.600;2023-09-19T15:01:12;24.80;81.40
1830;DHT22;914;48.118;11.600;2023-09-19T15:03:39;24.60;81.00
1830;DHT22;914;48.118;11.600;2023-09-19T15:06:11;24.70;81.00
1830;DHT22;914;48.118;11.600;2023-09-19T15:08:43;24.60;82.10
1830;DHT22;914;48.118;11.600;2023-09-19T15:11:19;24.50;81.80
1830;DHT22;914;48.118;11.600;2023-09-19T15:13:46;24.50;80.90
1830;DHT22;914;48.118;11.600;2023-09-19T15:16:14;24.60;79.80
1830;DHT22;914;48.118;11.600;2023-09-19T15:18:42;24.60;79.20
1830;DHT22;914;48.118;11.600;2023-09-19T15:21:09;24.80;79.10
1830;DHT22;914;48.118;11.600;2023-09-19T15:23:37;24.60;79.20
1830;DHT22;914;48.118;11.600;2023-09-19T15:26:07;24.40;80.00
1830;DHT22;914;48.118;11.600;2023-09-19T15:28:34;24.40;80.70
1830;DHT22;914;48.118;11.600;2023-09-19T15:31:04;24.30;81.40
1830;DHT22;914;48.118;11.600;2023-09-19T15:33:31;24.30;81.20
1830;DHT22;914;48.118;11.600;2023-09-19T15:36:02;24.30;81.20
1830;DHT22;914;48.118;11.600;2023-09-19T15:38:29;24.30;82.00
1830;DHT22;914;48.118;11.600;2023-09-19T15:40:57;24.40;82.90
1830;DHT22;914;48.118;11.600;2023-09-19T15:43:23;24.30;82.30
1830;DHT22;914;48.118;11.600;2023-09-19T15:45:49;24.10;82.10
1830;DHT22;914;48.118;11.600;2023-09-19T15:48:15;23.90;83.50
1830;DHT22;914;48.118;11.600;2023-09-19T15:50:42;24.00;85.30
1830;DHT22;914;48.118;11.600;2023-09-19T15:53:10;24.10;84.10
1830;DHT22;914;48.118;11.600;2023-09-19T15:55:39;24.10;82.90
1830;DHT22;914;48.118;11.600;2023-09-19T15:58:05;24.30;83.20
1830;DHT22;914;48.118;11.600;2023-09-19T16:00:34;24.50;81.80
1830;DHT22;914;48.118;11.600;2023-09-19T16:03:00;24.20;81.70
1830;DHT22;914;48.118;11.600;2023-09-19T16:05:27;24.10;83.30
1830;DHT22;914;48.118;11.600;2023-09-19T16:07:53;24.00;82.90
1830;DHT22;914;48.118;11.600;2023-09-19T16:10:19;23.70;82.90
1830;DHT22;914;48.118;11.600;2023-09-19T16:12:46;23.70;82.20
1830;DHT22;914;48.118;11.600;2023-09-19T16:15:11;23.80;82.60
1830;DHT22;914;48.118;11.600;2023-09-19T16:17:39;24.00;82.20
1830;DHT22;914;48.118;11.600;2023-09-19T16:20:05;24.00;82.00
1830;DHT22;914;48.118;11.600;2023-09-19T16:22:38;24.00;82.20
1830;DHT22;914;48.118;11.600;2023-09-19T16:25:04;24.00;82.20
1830;DHT22;914;48.118;11.600;2023-09-19T16:27:30;24.00;82.10
1830;DHT22;914;48.118;11.600;2023-09-19T16:29:56;24.00;81.60
1830;DHT22;914;48.118;11.600;2023-09-19T16:32:21;23.70;81.90
1830;DHT22;914;48.118;11.600;2023-09-19T16:34:47;23.50;82.50
1830;DHT22;914;48.118;11.600;2023-09-19T16:37:12;23.40;82.20
1830;DHT22;914;48.118;11.600;2023-09-19T16:39:40;23.60;81.40
1830;DHT22;914;48.118;11.600;2023-09-19T16:42:07;23.30;82.60
1830;DHT22;914;48.118;11.600;2023-09-19T16:44:33;23.30;83.10
1830;DHT22;914;48.118;11.600;2023-09-19T16:46:59;23.20;83.10
1830;DHT22;914;48.118;11.600;2023-09-19T16:49:26;23.30;83.00